createdAt,value
2023-01-10T00:04:43.584Z,44.97
2023-01-10T00:09:48.558Z,37.30
2023-01-10T00:14:52.762Z,28.35
2023-01-10T00:19:56.343Z,42.47
2023-01-10T00:25:01.369Z,44.42
2023-01-10T00:30:13.887Z,29.15
2023-01-10T00:35:17.496Z,28.45
2023-01-10T00:40:22.637Z,23.83
2023-01-10T00:45:27.189Z,21.45
2023-01-10T00:50:30.780Z,18.83
2023-01-10T00:55:37.403Z,18.92
2023-01-10T01:00:41.133Z,20.92
2023-01-10T01:05:45.610Z,25.65
2023-01-10T01:10:51.922Z,19.48
2023-01-10T01:15:59.396Z,17.13
2023-01-10T01:21:05.709Z,17.65
2023-01-10T01:26:11.067Z,15.85
2023-01-10T01:31:14.707Z,15.27
2023-01-10T01:36:18.406Z,14.10
2023-01-10T01:41:41.002Z,14.65
2023-01-10T01:46:47.970Z,15.65
2023-01-10T01:51:58.197Z,17.23
2023-01-10T01:57:06.982Z,13.20
2023-01-10T02:02:16.353Z,12.90
2023-01-10T02:07:20.715Z,11.77
2023-01-10T02:12:28.536Z,10.18
2023-01-10T02:17:32.235Z,11.77
2023-01-10T02:23:11.852Z,12.82
2023-01-10T02:28:55.341Z,11.20
2023-01-10T02:34:06.384Z,12.57
2023-01-10T02:39:18.246Z,12.52
2023-01-10T02:44:29.359Z,14.23
2023-01-10T02:49:43.084Z,14.20
2023-01-10T02:54:47.082Z,12.02
2023-01-10T03:07:15.914Z,11.75
2023-01-10T03:12:26.086Z,12.60
2023-01-10T03:17:31.476Z,13.43
2023-01-10T03:22:40.681Z,11.57
2023-01-10T03:27:53.395Z,11.07
2023-01-10T03:33:00.023Z,13.13
2023-01-10T03:38:11.156Z,12.63
2023-01-10T03:43:40.443Z,12.85
2023-01-10T03:48:47.241Z,13.93
2023-01-10T03:53:52.241Z,13.40
2023-01-10T03:58:55.870Z,14.18
2023-01-10T04:03:59.465Z,12.55
2023-01-10T04:09:04.759Z,14.73
2023-01-10T04:14:08.575Z,15.23
2023-01-10T04:19:12.207Z,15.93
2023-01-10T04:24:17.355Z,16.70
2023-01-10T04:29:20.887Z,16.45
2023-01-10T04:34:24.452Z,17.70
2023-01-10T04:39:29.495Z,18.60
2023-01-10T04:44:33.166Z,20.08
2023-01-10T04:49:36.729Z,20.50
2023-01-10T04:54:41.711Z,22.08
2023-01-10T04:59:45.263Z,26.45
2023-01-10T05:04:48.832Z,23.67
2023-01-10T05:09:53.841Z,24.52
2023-01-10T05:14:57.427Z,23.83
2023-01-10T05:20:00.999Z,27.10
2023-01-10T05:25:06.921Z,27.13
2023-01-10T05:30:12.963Z,27.60
2023-01-10T05:35:17.421Z,27.73
2023-01-10T05:40:22.409Z,29.35
2023-01-10T05:45:25.985Z,23.50
2023-01-10T05:50:29.711Z,22.77
2023-01-10T05:55:37.979Z,23.60
2023-01-10T06:00:41.602Z,21.70
2023-01-10T06:05:46.734Z,21.77
2023-01-10T06:10:53.628Z,20.23
2023-01-10T06:15:57.351Z,20.38
2023-01-10T06:21:00.910Z,19.77
2023-01-10T06:26:06.517Z,16.52
2023-01-10T06:31:10.139Z,14.88
2023-01-10T06:36:13.870Z,15.30
2023-01-10T06:41:18.889Z,14.35
2023-01-10T06:46:22.741Z,17.73
2023-01-10T06:51:26.445Z,14.77
2023-01-10T06:56:31.370Z,15.90
2023-01-10T07:01:35.270Z,17.25
2023-01-10T07:06:39.763Z,14.63
2023-01-10T07:11:44.961Z,15.63
2023-01-10T07:16:48.683Z,13.15
2023-01-10T07:21:52.437Z,14.88
2023-01-10T07:26:57.829Z,13.55
2023-01-10T07:32:01.580Z,13.90
2023-01-10T07:37:05.370Z,11.95
2023-01-10T07:42:10.843Z,16.77
2023-01-10T07:47:15.008Z,20.55
2023-01-10T07:52:18.762Z,18.65
2023-01-10T07:57:23.924Z,20.35
2023-01-10T08:02:27.767Z,28.13
2023-01-10T08:07:32.040Z,24.00
2023-01-10T08:12:36.986Z,23.55
2023-01-10T08:17:40.740Z,32.30
2023-01-10T08:22:44.443Z,29.45
2023-01-10T08:27:49.679Z,25.08
2023-01-10T08:32:53.469Z,29.63
2023-01-10T08:38:00.089Z,28.73
2023-01-10T08:43:06.800Z,30.20
2023-01-10T08:48:11.664Z,29.73
2023-01-10T08:53:15.375Z,29.65
2023-01-10T08:58:20.408Z,33.30
2023-01-10T09:03:24.087Z,33.65
2023-01-10T09:08:28.084Z,33.20
2023-01-10T09:13:34.634Z,32.78
2023-01-10T09:18:38.390Z,33.30
2023-01-10T09:23:43.664Z,55.28
2023-01-10T09:28:49.325Z,41.78
2023-01-10T09:33:52.979Z,40.45
2023-01-10T09:38:56.639Z,35.38
2023-01-10T09:44:06.196Z,41.22
2023-01-10T09:54:25.401Z,35.42
2023-01-10T09:59:36.678Z,38.60
2023-01-10T10:04:41.744Z,34.30
2023-01-10T10:09:45.358Z,28.17
2023-01-10T10:15:03.613Z,32.63
2023-01-10T10:20:25.793Z,27.83
2023-01-10T10:25:46.320Z,25.90
2023-01-10T10:30:58.035Z,29.08
2023-01-10T10:36:05.978Z,31.88
2023-01-10T10:41:19.270Z,41.03
2023-01-10T10:46:25.151Z,55.50
2023-01-10T10:51:38.878Z,29.98
2023-01-10T10:56:44.174Z,34.45
2023-01-10T11:01:52.056Z,26.70
2023-01-10T11:06:56.658Z,25.83
2023-01-10T11:12:00.444Z,27.40
2023-01-10T11:17:25.698Z,28.10
2023-01-10T11:22:31.417Z,30.10
2023-01-10T11:27:48.882Z,46.55
2023-01-10T11:32:56.634Z,31.77
2023-01-10T11:38:02.337Z,29.00
2023-01-10T11:43:26.463Z,55.47
2023-01-10T11:49:04.560Z,104.32
2023-01-10T11:54:09.027Z,161.15
2023-01-10T11:59:15.545Z,94.32
2023-01-10T12:04:22.591Z,96.15
2023-01-10T12:09:39.666Z,93.93
2023-01-10T12:14:43.561Z,97.22
2023-01-10T12:19:48.663Z,82.57
2023-01-10T12:24:55.624Z,80.93
2023-01-10T12:30:06.494Z,66.55
2023-01-10T12:35:18.383Z,49.92
2023-01-10T12:40:31.852Z,49.95
2023-01-10T12:45:42.348Z,80.00
2023-01-10T12:50:54.017Z,66.22
2023-01-10T12:55:59.878Z,62.95
2023-01-10T13:01:05.602Z,66.78
2023-01-10T13:06:17.716Z,48.47
2023-01-10T13:11:25.901Z,60.13
2023-01-10T13:16:37.566Z,77.68
2023-01-10T13:21:44.092Z,64.78
2023-01-10T13:26:53.322Z,97.80
2023-01-10T13:31:59.908Z,72.63
2023-01-10T13:37:13.341Z,65.43
2023-01-10T13:42:49.980Z,54.50
2023-01-10T13:48:29.664Z,135.20
2023-01-10T13:59:05.160Z,37.13
2023-01-10T14:04:09.470Z,38.92
2023-01-10T14:09:49.711Z,36.28
2023-01-10T14:15:00.929Z,42.50
2023-01-10T14:20:16.589Z,32.72
2023-01-10T14:25:23.227Z,34.13
2023-01-10T14:30:31.888Z,32.63
2023-01-10T14:35:40.532Z,38.37
2023-01-10T14:40:49.212Z,44.47
2023-01-10T14:45:59.569Z,39.47
2023-01-10T14:51:21.312Z,34.55
2023-01-10T14:56:28.369Z,38.55
2023-01-10T15:01:32.234Z,37.90
2023-01-10T15:06:54.723Z,44.92
2023-01-10T15:12:02.224Z,41.33
2023-01-10T15:17:06.804Z,40.72
2023-01-10T15:22:28.563Z,32.33
2023-01-10T15:27:34.686Z,34.60
2023-01-10T15:32:40.709Z,36.72
2023-01-10T15:37:51.229Z,41.58
2023-01-10T15:43:12.692Z,54.03
2023-01-10T15:48:31.700Z,40.30
2023-01-10T15:53:57.907Z,49.88
2023-01-10T15:59:04.880Z,46.38
2023-01-10T16:04:15.174Z,39.08
2023-01-10T16:09:21.724Z,37.00
2023-01-10T16:14:27.289Z,40.05
2023-01-10T16:19:30.985Z,45.67
2023-01-10T16:24:37.165Z,43.33
2023-01-10T16:29:42.621Z,39.45
2023-01-10T16:34:46.372Z,41.83
2023-01-10T16:39:49.953Z,62.28
2023-01-10T16:44:55.069Z,42.55
2023-01-10T16:49:58.877Z,43.63
2023-01-10T16:55:03.118Z,37.58
2023-01-10T17:00:09.650Z,33.83
2023-01-10T17:05:16.284Z,41.38
2023-01-10T17:10:27.749Z,37.08
2023-01-10T17:15:32.862Z,66.70
2023-01-10T17:20:36.529Z,70.95
2023-01-10T17:25:40.526Z,43.70
2023-01-10T17:30:45.801Z,41.50
2023-01-10T17:35:49.400Z,46.97
2023-01-10T17:40:53.698Z,51.28
2023-01-10T17:45:59.965Z,44.38
2023-01-10T17:51:04.602Z,116.90
2023-01-10T17:56:08.960Z,82.68
2023-01-10T18:01:19.004Z,62.60
2023-01-10T18:06:24.856Z,53.83
2023-01-10T18:11:30.748Z,50.03
2023-01-10T18:16:36.016Z,47.58
2023-01-10T18:21:39.689Z,36.90
2023-01-10T18:26:43.425Z,35.45
2023-01-10T18:31:48.640Z,34.45
2023-01-10T18:36:52.223Z,34.42
2023-01-10T18:41:57.091Z,32.90
2023-01-10T18:47:02.284Z,31.10
2023-01-10T18:52:06.653Z,25.92
2023-01-10T18:57:10.370Z,26.30
2023-01-10T19:02:17.407Z,20.70
2023-01-10T19:07:21.942Z,21.75
2023-01-10T19:12:28.510Z,36.22
2023-01-10T19:17:33.474Z,30.40
2023-01-10T19:22:37.100Z,36.10
2023-01-10T19:27:40.698Z,34.47
2023-01-10T19:32:45.665Z,64.95
2023-01-10T19:37:49.535Z,76.75
2023-01-10T19:42:53.283Z,116.22
2023-01-10T19:47:58.457Z,87.10
2023-01-10T19:53:02.041Z,55.50
2023-01-10T19:58:05.723Z,54.92
2023-01-10T20:03:10.706Z,43.05
2023-01-10T20:08:14.523Z,41.80
2023-01-10T20:13:18.401Z,47.75
2023-01-10T20:18:23.513Z,34.08
2023-01-10T20:23:27.096Z,38.10
2023-01-10T20:28:31.363Z,46.25
2023-01-10T20:33:36.423Z,51.35
2023-01-10T20:38:40.042Z,42.55
2023-01-10T20:43:44.070Z,39.92
2023-01-10T20:48:50.871Z,29.77
2023-01-10T20:53:55.252Z,28.50
2023-01-10T20:58:59.771Z,33.22
2023-01-10T21:04:05.929Z,31.85
2023-01-10T21:09:10.916Z,41.28
2023-01-10T21:14:14.515Z,33.05
2023-01-10T21:19:20.692Z,34.70
2023-01-10T21:24:25.619Z,31.45
2023-01-10T21:29:30.865Z,34.30
2023-01-10T21:34:35.918Z,33.85
2023-01-10T21:39:39.582Z,30.05
2023-01-10T21:44:43.324Z,31.85
2023-01-10T21:49:48.772Z,34.03
2023-01-10T21:54:55.835Z,98.10
2023-01-10T22:00:00.286Z,40.13
2023-01-10T22:05:05.947Z,77.30
2023-01-10T22:10:13.962Z,77.53
2023-01-10T22:15:19.435Z,48.60
2023-01-10T22:20:24.725Z,71.03
2023-01-10T22:25:28.838Z,71.57
2023-01-10T22:30:32.390Z,29.98
2023-01-10T22:35:37.513Z,32.83
2023-01-10T22:40:41.329Z,33.33
2023-01-10T22:45:44.972Z,32.50
2023-01-10T22:50:50.484Z,35.53
2023-01-10T22:55:54.076Z,199.63
2023-01-10T23:00:58.011Z,48.15
2023-01-10T23:06:02.941Z,54.10
2023-01-10T23:11:07.511Z,157.65
2023-01-10T23:16:14.991Z,53.95
2023-01-10T23:21:20.045Z,34.45
2023-01-10T23:26:23.801Z,52.30
2023-01-10T23:31:29.497Z,61.55
2023-01-10T23:36:34.768Z,42.08
2023-01-10T23:41:38.364Z,30.17
2023-01-10T23:46:41.944Z,27.63
2023-01-10T23:51:47.080Z,50.97
2023-01-10T23:56:52.555Z,44.95
